createdAt,value
2019-01-23T00:00:28.433Z,29.17
2019-01-23T00:02:57.129Z,30.47
2019-01-23T00:05:25.849Z,30.10
2019-01-23T00:07:54.586Z,30.80
2019-01-23T00:10:23.185Z,30.80
2019-01-23T00:12:51.877Z,29.97
2019-01-23T00:15:20.885Z,28.93
2019-01-23T00:17:49.645Z,30.07
2019-01-23T00:20:18.252Z,30.10
2019-01-23T00:22:46.934Z,30.20
2019-01-23T00:25:15.678Z,28.80
2019-01-23T00:27:44.591Z,32.17
2019-01-23T00:30:15.426Z,28.00
2019-01-23T00:32:44.042Z,29.97
2019-01-23T00:35:12.785Z,30.03
2019-01-23T00:37:41.434Z,30.13
2019-01-23T00:40:16.740Z,28.00
2019-01-23T00:42:45.461Z,29.63
2019-01-23T00:45:16.885Z,27.63
2019-01-23T00:47:45.540Z,27.63
2019-01-23T00:50:15.044Z,28.83
2019-01-23T00:52:43.730Z,26.87
2019-01-23T00:55:19.303Z,27.33
2019-01-23T00:57:47.918Z,27.03
2019-01-23T01:00:22.328Z,28.20
2019-01-23T01:02:51.608Z,27.03
2019-01-23T01:05:20.612Z,26.87
2019-01-23T01:07:49.300Z,25.70
2019-01-23T01:10:19.745Z,26.93
2019-01-23T01:12:50.275Z,25.63
2019-01-23T01:15:19.311Z,26.17
2019-01-23T01:17:47.983Z,24.17
2019-01-23T01:20:16.836Z,26.70
2019-01-23T01:22:45.996Z,25.03
2019-01-23T01:25:16.525Z,25.90
2019-01-23T01:27:45.311Z,26.60
2019-01-23T01:30:17.077Z,26.20
2019-01-23T01:32:45.696Z,26.30
2019-01-23T01:35:14.387Z,25.33
2019-01-23T01:37:43.160Z,24.80
2019-01-23T01:40:14.798Z,23.87
2019-01-23T01:42:43.383Z,26.43
2019-01-23T01:45:13.667Z,26.30
2019-01-23T01:47:42.345Z,23.83
2019-01-23T01:50:16.376Z,23.83
2019-01-23T01:52:45.123Z,24.73
2019-01-23T01:55:13.919Z,24.90
2019-01-23T01:57:42.615Z,24.03
2019-01-23T02:00:16.915Z,24.07
2019-01-23T02:02:47.713Z,24.83
2019-01-23T02:05:18.011Z,23.53
2019-01-23T02:07:46.596Z,23.53
2019-01-23T02:10:17.547Z,23.20
2019-01-23T02:12:46.151Z,22.60
2019-01-23T02:15:16.119Z,23.77
2019-01-23T02:17:44.737Z,21.87
2019-01-23T02:20:21.504Z,23.87
2019-01-23T02:22:50.159Z,23.03
2019-01-23T02:25:19.323Z,23.80
2019-01-23T02:27:48.573Z,22.50
2019-01-23T02:30:19.874Z,23.43
2019-01-23T02:32:48.425Z,22.30
2019-01-23T02:35:17.082Z,21.33
2019-01-23T02:37:45.721Z,22.90
2019-01-23T02:40:17.007Z,24.10
2019-01-23T02:42:45.672Z,23.40
2019-01-23T02:45:14.859Z,23.90
2019-01-23T02:47:43.746Z,22.83
2019-01-23T02:50:14.136Z,21.87
2019-01-23T02:52:42.739Z,23.63
2019-01-23T02:55:11.895Z,22.97
2019-01-23T02:57:40.871Z,21.47
2019-01-23T03:00:12.292Z,23.70
2019-01-23T03:02:41.153Z,22.53
2019-01-23T03:05:12.830Z,22.63
2019-01-23T03:07:41.493Z,24.07
2019-01-23T03:10:12.959Z,23.93
2019-01-23T03:12:41.547Z,24.57
2019-01-23T03:15:12.834Z,23.27
2019-01-23T03:17:41.421Z,23.30
2019-01-23T03:20:12.159Z,25.80
2019-01-23T03:22:40.822Z,23.23
2019-01-23T03:25:12.089Z,22.60
2019-01-23T03:27:40.677Z,23.00
2019-01-23T03:30:12.943Z,23.70
2019-01-23T03:32:41.634Z,23.83
2019-01-23T03:35:10.813Z,24.63
2019-01-23T03:37:39.418Z,26.07
2019-01-23T03:40:11.071Z,26.27
2019-01-23T03:42:39.661Z,25.73
2019-01-23T03:45:11.013Z,26.53
2019-01-23T03:47:40.092Z,25.90
2019-01-23T03:50:14.106Z,26.27
2019-01-23T03:52:42.937Z,26.00
2019-01-23T03:55:13.429Z,27.83
2019-01-23T03:57:42.096Z,25.67
2019-01-23T04:00:13.717Z,26.40
2019-01-23T04:02:42.476Z,25.83
2019-01-23T04:05:11.954Z,25.10
2019-01-23T04:07:40.601Z,25.90
2019-01-23T04:10:12.052Z,27.03
2019-01-23T04:12:42.306Z,26.87
2019-01-23T04:15:13.046Z,25.70
2019-01-23T04:17:41.705Z,26.40
2019-01-23T04:20:15.644Z,25.97
2019-01-23T04:22:44.848Z,27.10
2019-01-23T04:25:13.920Z,28.03
2019-01-23T04:27:42.860Z,27.13
2019-01-23T04:30:17.429Z,28.40
2019-01-23T04:32:46.023Z,27.37
2019-01-23T04:35:14.670Z,29.23
2019-01-23T04:37:43.265Z,29.83
2019-01-23T04:40:13.430Z,28.07
2019-01-23T04:42:42.187Z,28.23
2019-01-23T04:45:16.144Z,28.07
2019-01-23T04:47:44.869Z,25.47
2019-01-23T04:50:34.565Z,27.17
2019-01-23T04:53:06.619Z,26.70
2019-01-23T04:55:36.205Z,29.37
2019-01-23T04:58:05.050Z,26.50
2019-01-23T05:00:40.276Z,24.57
2019-01-23T05:03:10.420Z,27.60
2019-01-23T05:05:40.569Z,26.50
2019-01-23T05:08:12.147Z,27.43
2019-01-23T05:10:40.765Z,27.03
2019-01-23T05:13:09.529Z,26.73
2019-01-23T05:15:38.141Z,26.90
2019-01-23T05:18:06.866Z,26.60
2019-01-23T05:20:35.482Z,28.10
2019-01-23T05:23:04.234Z,28.57
2019-01-23T05:25:32.840Z,29.17
2019-01-23T05:28:01.737Z,29.17
2019-01-23T05:30:30.383Z,28.27
2019-01-23T05:32:58.952Z,27.00
2019-01-23T05:35:27.544Z,26.97
2019-01-23T05:37:56.144Z,27.20
2019-01-23T05:40:24.733Z,27.03
2019-01-23T05:42:53.319Z,26.23
2019-01-23T05:45:21.927Z,27.73
2019-01-23T05:47:50.497Z,27.43
2019-01-23T05:50:19.753Z,25.20
2019-01-23T05:52:51.357Z,26.13
2019-01-23T05:55:20.025Z,27.43
2019-01-23T05:57:48.612Z,26.17
2019-01-23T06:00:19.816Z,26.90
2019-01-23T06:02:48.468Z,28.30
2019-01-23T06:05:17.996Z,27.10
2019-01-23T06:07:46.768Z,26.77
2019-01-23T06:10:15.537Z,26.30
2019-01-23T06:12:47.245Z,28.30
2019-01-23T06:15:18.897Z,25.10
2019-01-23T06:17:47.482Z,26.70
2019-01-23T06:20:21.033Z,27.50
2019-01-23T06:22:50.078Z,24.70
2019-01-23T06:25:18.766Z,25.37
2019-01-23T06:27:47.425Z,25.83
2019-01-23T06:30:21.466Z,28.17
2019-01-23T06:32:50.003Z,27.23
2019-01-23T06:35:19.044Z,27.63
2019-01-23T06:37:47.631Z,27.70
2019-01-23T06:40:20.230Z,27.83
2019-01-23T06:42:48.822Z,28.47
2019-01-23T06:45:20.777Z,27.53
2019-01-23T06:47:49.831Z,27.43
2019-01-23T06:50:20.333Z,26.67
2019-01-23T06:52:54.673Z,25.93
2019-01-23T06:55:23.273Z,27.97
2019-01-23T06:57:51.855Z,26.67
2019-01-23T07:00:22.834Z,26.63
2019-01-23T07:02:51.601Z,27.03
2019-01-23T07:05:20.214Z,27.73
2019-01-23T07:07:49.068Z,27.23
2019-01-23T07:10:20.197Z,27.73
2019-01-23T07:12:48.991Z,27.50
2019-01-23T07:15:18.389Z,25.90
2019-01-23T07:17:47.095Z,28.20
2019-01-23T07:20:18.637Z,28.30
2019-01-23T07:22:47.425Z,27.30
2019-01-23T07:25:16.298Z,28.80
2019-01-23T07:27:45.106Z,28.73
2019-01-23T07:30:23.994Z,29.33
2019-01-23T07:32:47.928Z,29.07
2019-01-23T07:35:16.473Z,29.10
2019-01-23T07:37:45.083Z,29.73
2019-01-23T07:40:13.885Z,28.03
2019-01-23T07:42:42.507Z,31.20
2019-01-23T07:45:14.293Z,29.27
2019-01-23T07:47:42.894Z,30.97
2019-01-23T07:50:13.547Z,30.20
2019-01-23T07:52:42.281Z,30.97
2019-01-23T07:55:13.669Z,31.67
2019-01-23T07:57:42.269Z,30.67
2019-01-23T08:00:17.130Z,30.67
2019-01-23T08:02:45.976Z,35.27
2019-01-23T08:05:20.210Z,34.57
2019-01-23T08:07:48.943Z,31.17
2019-01-23T08:10:18.951Z,31.37
2019-01-23T08:12:47.729Z,32.37
2019-01-23T08:15:19.384Z,35.30
2019-01-23T08:17:47.998Z,33.83
2019-01-23T08:20:22.231Z,33.83
2019-01-23T08:22:50.838Z,34.60
2019-01-23T08:25:19.472Z,34.83
2019-01-23T08:27:48.074Z,35.47
2019-01-23T08:30:19.298Z,36.83
2019-01-23T08:32:47.963Z,37.00
2019-01-23T08:35:16.791Z,38.13
2019-01-23T08:37:45.391Z,37.77
2019-01-23T08:40:16.567Z,37.07
2019-01-23T08:42:45.243Z,36.23
2019-01-23T08:45:15.101Z,37.67
2019-01-23T08:47:43.760Z,39.10
2019-01-23T08:50:21.478Z,41.30
2019-01-23T08:52:50.169Z,41.00
2019-01-23T08:55:18.748Z,40.93
2019-01-23T08:57:47.347Z,42.57
2019-01-23T09:00:17.869Z,42.40
2019-01-23T09:02:46.539Z,41.83
2019-01-23T09:05:15.456Z,44.73
2019-01-23T09:07:44.079Z,42.03
2019-01-23T09:10:24.278Z,44.63
2019-01-23T09:12:52.884Z,47.80
2019-01-23T09:15:21.520Z,45.83
2019-01-23T09:17:50.189Z,47.13
2019-01-23T09:20:20.412Z,43.83
2019-01-23T09:22:49.010Z,46.67
2019-01-23T09:25:27.759Z,46.03
2019-01-23T09:27:56.469Z,45.77
2019-01-23T09:30:34.596Z,48.80
2019-01-23T09:33:23.035Z,48.60
2019-01-23T09:36:12.275Z,47.23
2019-01-23T09:39:08.169Z,48.23
2019-01-23T09:42:09.824Z,47.27
2019-01-23T09:44:58.295Z,50.70
2019-01-23T09:47:35.786Z,49.60
2019-01-23T09:50:31.744Z,48.07
2019-01-23T09:53:08.681Z,51.00
2019-01-23T09:55:37.253Z,51.40
2019-01-23T09:58:05.854Z,52.57
2019-01-23T10:00:34.420Z,51.87
2019-01-23T10:03:03.042Z,53.30
2019-01-23T10:05:31.619Z,55.47
2019-01-23T10:08:00.229Z,55.57
2019-01-23T10:10:28.819Z,52.33
2019-01-23T10:12:57.412Z,55.23
2019-01-23T10:15:37.611Z,55.87
2019-01-23T10:18:06.340Z,56.43
2019-01-23T10:20:34.908Z,54.80
2019-01-23T10:23:03.595Z,55.30
2019-01-23T10:25:32.186Z,57.73
2019-01-23T10:28:00.839Z,57.67
2019-01-23T10:30:29.379Z,57.17
2019-01-23T10:32:57.950Z,57.00
2019-01-23T10:35:26.779Z,57.17
2019-01-23T10:37:55.353Z,55.67
2019-01-23T10:40:23.978Z,55.67
2019-01-23T10:42:52.574Z,57.60
2019-01-23T10:45:21.234Z,58.13
2019-01-23T10:47:55.909Z,60.07
2019-01-23T10:50:20.092Z,58.70
2019-01-23T10:52:48.707Z,60.63
2019-01-23T10:55:17.333Z,58.93
2019-01-23T10:57:46.060Z,59.57
2019-01-23T11:00:22.358Z,59.37
2019-01-23T11:02:51.018Z,61.97
2019-01-23T11:05:22.077Z,59.20
2019-01-23T11:07:50.672Z,63.50
2019-01-23T11:10:24.644Z,61.53
2019-01-23T11:12:53.347Z,62.03
2019-01-23T11:15:22.091Z,61.20
2019-01-23T11:17:50.738Z,65.10
2019-01-23T11:20:20.824Z,63.63
2019-01-23T11:22:49.451Z,61.70
2019-01-23T11:25:18.225Z,64.20
2019-01-23T11:27:47.340Z,65.33
2019-01-23T11:30:19.014Z,65.70
2019-01-23T11:32:47.609Z,64.93
2019-01-23T11:35:16.599Z,63.57
2019-01-23T11:37:45.350Z,60.87
2019-01-23T11:40:16.593Z,60.63
2019-01-23T11:42:45.196Z,62.77
2019-01-23T11:45:13.927Z,60.87
2019-01-23T11:47:42.636Z,60.37
2019-01-23T11:50:13.937Z,58.83
2019-01-23T11:52:43.165Z,61.13
2019-01-23T11:55:11.835Z,59.17
2019-01-23T11:57:40.679Z,61.80
2019-01-23T12:00:12.423Z,61.20
2019-01-23T12:02:41.026Z,59.23
2019-01-23T12:05:12.680Z,60.27
2019-01-23T12:07:41.358Z,60.10
2019-01-23T12:10:13.045Z,56.70
2019-01-23T12:12:41.673Z,61.23
2019-01-23T12:15:13.128Z,60.93
2019-01-23T12:17:41.685Z,59.97
2019-01-23T12:20:11.337Z,58.60
2019-01-23T12:22:39.940Z,59.57
2019-01-23T12:25:10.206Z,60.07
2019-01-23T12:27:38.897Z,58.87
2019-01-23T12:30:19.488Z,54.67
2019-01-23T12:32:48.084Z,56.83
2019-01-23T12:35:16.791Z,57.80
2019-01-23T12:37:45.457Z,57.10
2019-01-23T12:40:16.101Z,57.17
2019-01-23T12:42:44.760Z,54.60
2019-01-23T12:45:22.102Z,58.73
2019-01-23T12:47:50.682Z,55.70
2019-01-23T12:50:22.615Z,54.10
2019-01-23T12:52:51.170Z,52.80
2019-01-23T12:55:19.785Z,47.90
2019-01-23T12:57:48.365Z,52.80
2019-01-23T13:00:23.135Z,54.10
2019-01-23T13:02:51.850Z,52.87
2019-01-23T13:05:22.263Z,52.57
2019-01-23T13:07:51.304Z,51.47
2019-01-23T13:10:22.525Z,49.20
2019-01-23T13:12:51.643Z,52.80
2019-01-23T13:15:22.721Z,50.93
2019-01-23T13:17:51.462Z,52.63
2019-01-23T13:20:22.149Z,52.10
2019-01-23T13:22:50.900Z,50.70
2019-01-23T13:25:22.264Z,50.77
2019-01-23T13:27:51.177Z,50.40
2019-01-23T13:30:22.076Z,52.67
2019-01-23T13:32:50.807Z,52.30
2019-01-23T13:35:27.695Z,51.13
2019-01-23T13:37:56.384Z,49.63
2019-01-23T13:40:27.513Z,50.23
2019-01-23T13:42:56.124Z,51.57
2019-01-23T13:45:24.846Z,50.40
2019-01-23T13:47:53.405Z,50.03
2019-01-23T13:50:21.985Z,53.50
2019-01-23T13:52:50.608Z,48.20
2019-01-23T13:55:23.356Z,49.30
2019-01-23T13:57:51.981Z,49.70
2019-01-23T14:00:40.045Z,50.17
2019-01-23T14:03:08.989Z,48.50
2019-01-23T14:05:37.613Z,45.63
2019-01-23T14:08:07.566Z,46.10
2019-01-23T14:10:36.159Z,44.43
2019-01-23T14:13:05.144Z,43.93
2019-01-23T14:15:35.958Z,43.57
2019-01-23T14:18:05.635Z,44.37
2019-01-23T14:20:34.532Z,45.60
2019-01-23T14:23:03.224Z,43.70
2019-01-23T14:25:31.870Z,43.20
2019-01-23T14:28:00.500Z,38.87
2019-01-23T14:30:40.739Z,40.73
2019-01-23T14:33:09.426Z,38.07
2019-01-23T14:35:38.846Z,39.87
2019-01-23T14:38:07.449Z,37.20
2019-01-23T14:40:36.047Z,37.57
2019-01-23T14:43:06.080Z,36.53
2019-01-23T14:45:34.706Z,39.63
2019-01-23T14:48:05.504Z,38.23
2019-01-23T14:50:34.094Z,36.63
2019-01-23T14:53:04.015Z,36.40
2019-01-23T14:55:32.749Z,36.50
2019-01-23T14:58:01.367Z,35.23
2019-01-23T15:00:32.362Z,34.60
2019-01-23T15:03:01.089Z,34.43
2019-01-23T15:05:29.726Z,33.40
2019-01-23T15:07:58.332Z,32.70
2019-01-23T15:10:29.853Z,33.03
2019-01-23T15:12:58.733Z,33.27
2019-01-23T15:15:27.675Z,34.17
2019-01-23T15:17:56.563Z,34.90
2019-01-23T15:20:30.941Z,32.27
2019-01-23T15:22:59.542Z,32.50
2019-01-23T15:25:28.390Z,35.80
2019-01-23T15:27:57.018Z,33.33
2019-01-23T15:30:25.756Z,31.50
2019-01-23T15:32:54.378Z,31.63
2019-01-23T15:35:23.090Z,32.10
2019-01-23T15:37:51.787Z,30.17
2019-01-23T15:40:28.827Z,29.90
2019-01-23T15:42:57.437Z,31.83
2019-01-23T15:45:26.165Z,32.17
2019-01-23T15:47:54.857Z,30.60
2019-01-23T15:50:25.369Z,28.97
2019-01-23T15:52:54.351Z,28.83
2019-01-23T15:55:24.682Z,27.57
2019-01-23T15:57:53.284Z,25.30
2019-01-23T16:00:24.851Z,26.23
2019-01-23T16:02:53.461Z,27.03
2019-01-23T16:05:22.130Z,25.17
2019-01-23T16:07:50.731Z,24.93
2019-01-23T16:10:24.884Z,25.67
2019-01-23T16:12:53.872Z,24.80
2019-01-23T16:15:25.097Z,24.20
2019-01-23T16:17:53.708Z,23.00
2019-01-23T16:20:22.434Z,24.13
2019-01-23T16:22:51.234Z,22.70
2019-01-23T16:25:20.393Z,22.80
2019-01-23T16:27:48.975Z,23.77
2019-01-23T16:30:29.528Z,23.40
2019-01-23T16:32:58.138Z,23.43
2019-01-23T16:35:26.731Z,21.60
2019-01-23T16:37:55.572Z,22.90
2019-01-23T16:40:25.218Z,23.03
2019-01-23T16:42:53.809Z,21.47
2019-01-23T16:45:23.658Z,23.70
2019-01-23T16:47:52.756Z,22.13
2019-01-23T16:50:24.015Z,22.70
2019-01-23T16:52:53.936Z,21.53
2019-01-23T16:55:23.088Z,21.33
2019-01-23T16:57:52.432Z,20.37
2019-01-23T17:00:23.768Z,19.93
2019-01-23T17:02:53.355Z,20.70
2019-01-23T17:05:27.568Z,18.97
2019-01-23T17:07:56.893Z,19.67
2019-01-23T17:10:27.352Z,18.87
2019-01-23T17:12:56.204Z,19.53
2019-01-23T17:15:25.188Z,19.77
2019-01-23T17:17:53.957Z,19.00
2019-01-23T17:20:28.792Z,19.33
2019-01-23T17:22:57.393Z,18.50
2019-01-23T17:25:26.077Z,20.70
2019-01-23T17:27:54.985Z,19.20
2019-01-23T17:30:23.732Z,18.90
2019-01-23T17:32:52.352Z,17.83
2019-01-23T17:35:21.777Z,19.37
2019-01-23T17:37:50.374Z,17.77
2019-01-23T17:40:21.179Z,16.43
2019-01-23T17:42:49.757Z,17.77
2019-01-23T17:45:24.137Z,17.50
2019-01-23T17:47:53.117Z,17.90
2019-01-23T17:50:23.696Z,18.27
2019-01-23T17:52:52.648Z,18.10
2019-01-23T17:55:29.804Z,19.23
2019-01-23T17:57:58.742Z,17.33
2019-01-23T18:00:30.950Z,18.23
2019-01-23T18:02:59.546Z,17.33
2019-01-23T18:05:28.416Z,17.20
2019-01-23T18:07:57.319Z,17.70
2019-01-23T18:10:25.936Z,17.23
2019-01-23T18:12:54.932Z,17.53
2019-01-23T18:15:28.903Z,17.33
2019-01-23T18:17:57.801Z,17.80
2019-01-23T18:20:28.370Z,17.43
2019-01-23T18:22:57.599Z,18.50
2019-01-23T18:25:26.388Z,17.97
2019-01-23T18:27:54.993Z,18.43
2019-01-23T18:30:29.495Z,17.50
2019-01-23T18:33:00.152Z,18.03
2019-01-23T18:35:38.199Z,16.70
2019-01-23T18:38:30.925Z,17.33
2019-01-23T18:41:19.121Z,16.77
2019-01-23T18:43:53.724Z,18.50
2019-01-23T18:46:45.141Z,16.37
2019-01-23T18:49:38.813Z,18.63
2019-01-23T18:52:15.220Z,18.23
2019-01-23T18:54:44.747Z,18.13
2019-01-23T18:57:21.948Z,17.37
2019-01-23T18:59:50.536Z,18.23
2019-01-23T19:02:19.557Z,17.57
2019-01-23T19:04:48.638Z,18.00
2019-01-23T19:07:17.851Z,18.33
2019-01-23T19:09:46.534Z,16.33
2019-01-23T19:12:15.211Z,17.60
2019-01-23T19:14:44.215Z,16.90
2019-01-23T19:17:12.842Z,18.33
2019-01-23T19:19:41.434Z,16.57
2019-01-23T19:22:10.146Z,15.93
2019-01-23T19:24:38.754Z,18.00
2019-01-23T19:27:07.470Z,17.30
2019-01-23T19:29:36.067Z,17.27
2019-01-23T19:32:05.330Z,16.80
2019-01-23T19:34:34.286Z,17.63
2019-01-23T19:37:02.913Z,18.33
2019-01-23T19:39:31.499Z,16.63
2019-01-23T19:44:34.233Z,17.60
2019-01-23T19:47:02.875Z,17.73
2019-01-23T19:49:31.469Z,18.20
2019-01-23T19:52:00.049Z,16.77
2019-01-23T19:54:28.618Z,17.37
2019-01-23T19:56:57.225Z,17.80
2019-01-23T19:59:25.822Z,18.13
2019-01-23T20:01:54.436Z,17.70
2019-01-23T20:04:23.016Z,17.60
2019-01-23T20:06:51.623Z,17.57
2019-01-23T20:09:20.261Z,16.40
2019-01-23T20:11:48.905Z,18.73
2019-01-23T20:14:17.490Z,16.90
2019-01-23T20:16:46.105Z,19.23
2019-01-23T20:19:14.708Z,17.70
2019-01-23T20:21:43.395Z,16.27
2019-01-23T20:24:11.958Z,16.77
2019-01-23T20:26:40.580Z,16.80
2019-01-23T20:29:09.201Z,17.10
2019-01-23T20:31:37.725Z,16.60
2019-01-23T20:34:06.642Z,17.27
2019-01-23T20:36:35.330Z,17.37
2019-01-23T20:39:05.428Z,17.47
2019-01-23T20:41:34.046Z,17.40
2019-01-23T20:44:02.795Z,17.63
2019-01-23T20:46:31.358Z,18.83
2019-01-23T20:49:00.032Z,18.17
2019-01-23T20:51:28.608Z,16.37
2019-01-23T20:53:57.218Z,17.90
2019-01-23T20:56:25.859Z,18.10
2019-01-23T20:58:54.482Z,19.90
2019-01-23T21:01:23.055Z,17.73
2019-01-23T21:03:51.691Z,17.70
2019-01-23T21:06:20.309Z,18.50
2019-01-23T21:08:48.928Z,17.50
2019-01-23T21:11:17.562Z,16.30
2019-01-23T21:13:46.210Z,17.63
2019-01-23T21:16:14.804Z,18.67
2019-01-23T21:18:43.442Z,18.00
2019-01-23T21:21:12.008Z,18.30
2019-01-23T21:23:40.624Z,17.80
2019-01-23T21:26:09.215Z,20.00
2019-01-23T21:28:37.817Z,19.40
2019-01-23T21:31:06.407Z,19.73
2019-01-23T21:33:34.996Z,18.53
2019-01-23T21:36:03.654Z,18.60
2019-01-23T21:38:32.251Z,18.67
2019-01-23T21:41:00.845Z,17.20
2019-01-23T21:43:29.452Z,18.27
2019-01-23T21:45:58.051Z,18.27
2019-01-23T21:48:26.620Z,17.07
2019-01-23T21:50:55.196Z,18.37
2019-01-23T21:53:23.792Z,19.17
2019-01-23T21:55:52.369Z,18.57
2019-01-23T21:58:21.047Z,18.13
2019-01-23T22:00:49.707Z,17.87
2019-01-23T22:03:18.365Z,19.00
2019-01-23T22:05:47.156Z,18.77
2019-01-23T22:08:15.758Z,18.57
2019-01-23T22:10:44.330Z,19.23
2019-01-23T22:13:12.925Z,19.33
2019-01-23T22:15:41.600Z,18.57
2019-01-23T22:18:10.182Z,17.67
2019-01-23T22:20:38.790Z,18.13
2019-01-23T22:23:07.585Z,17.13
2019-01-23T22:25:36.172Z,18.77
2019-01-23T22:28:05.127Z,19.20
2019-01-23T22:30:34.648Z,17.80
2019-01-23T22:33:03.266Z,17.50
2019-01-23T22:35:31.868Z,17.13
2019-01-23T22:38:00.542Z,17.57
2019-01-23T22:40:29.165Z,17.57
2019-01-23T22:42:57.780Z,17.80
2019-01-23T22:45:26.417Z,18.37
2019-01-23T22:47:54.944Z,20.20
2019-01-23T22:50:25.620Z,17.53
2019-01-23T22:52:54.262Z,17.83
2019-01-23T22:55:22.935Z,17.00
2019-01-23T22:57:51.510Z,17.13
2019-01-23T23:00:33.904Z,16.70
2019-01-23T23:03:03.133Z,16.20
2019-01-23T23:05:31.805Z,17.23
2019-01-23T23:08:00.451Z,18.40
2019-01-23T23:10:30.620Z,17.57
2019-01-23T23:12:59.210Z,16.67
2019-01-23T23:15:27.927Z,15.53
2019-01-23T23:17:56.634Z,16.83
2019-01-23T23:20:25.286Z,16.93
2019-01-23T23:22:53.860Z,17.20
2019-01-23T23:25:22.452Z,17.57
2019-01-23T23:27:51.065Z,18.10
2019-01-23T23:30:21.597Z,16.83
2019-01-23T23:32:50.201Z,18.43
2019-01-23T23:35:18.881Z,18.27
2019-01-23T23:37:47.526Z,17.90
2019-01-23T23:40:18.782Z,19.20
2019-01-23T23:42:47.361Z,19.23
2019-01-23T23:45:19.742Z,18.63
2019-01-23T23:47:48.341Z,19.87
2019-01-23T23:50:17.650Z,19.03
2019-01-23T23:52:46.243Z,19.67
2019-01-23T23:55:15.962Z,20.87
2019-01-23T23:57:44.721Z,17.97
